sensor_id;sensor_type;location;lat;lon;timestamp;P1;durP1;ratioP1;P2;durP2;ratioP2
15557;SDS011;7880;50.110;9.372;2023-05-10T00:03:31;2.1999999999999997;;;1.530769230769231;;
15557;SDS011;7880;50.110;9.372;2023-05-10T00:08:35;1.469230769230769;;;1.0999999999999999;;
15557;SDS011;7880;50.110;9.372;2023-05-10T00:13:39;1.9538461538461531;;;1.2538461538461536;;
15557;SDS011;7880;50.110;9.372;2023-05-10T00:18:45;1.2307692307692308;;;1.1307692307692305;;
15557;SDS011;7880;50.110;9.372;2023-05-10T00:23:48;0.9000000000000002;;;0.9000000000000002;;
15557;SDS011;7880;50.110;9.372;2023-05-10T00:28:58;2.838461538461538;;;0.8692307692307696;;
15557;SDS011;7880;50.110;9.372;2023-05-10T00:33:57;0.5999999999999999;;;0.5;;
15557;SDS011;7880;50.110;9.372;2023-05-10T00:39:03;0.7;;;0.7;;
15557;SDS011;7880;50.110;9.372;2023-05-10T00:44:05;2.0384615384615383;;;0.29999999999999993;;
15557;SDS011;7880;50.110;9.372;2023-05-10T00:49:11;0.2;;;0.2;;
15557;SDS011;7880;50.110;9.372;2023-05-10T00:54:30;0.29999999999999993;;;0.29999999999999993;;
15557;SDS011;7880;50.110;9.372;2023-05-10T00:59:31;0.5;;;0.2307692307692307;;
15557;SDS011;7880;50.110;9.372;2023-05-10T01:04:31;0.8;;;0.2;;
15557;SDS011;7880;50.110;9.372;2023-05-10T01:09:40;0.29999999999999993;;;0.2;;
15557;SDS011;7880;50.110;9.372;2023-05-10T01:14:38;0.1;;;0.1;;
15557;SDS011;7880;50.110;9.372;2023-05-10T01:19:43;0.4;;;0.29999999999999993;;
15557;SDS011;7880;50.110;9.372;2023-05-10T01:24:58;0.9384615384615387;;;0.5;;
15557;SDS011;7880;50.110;9.372;2023-05-10T01:36:51;0.29999999999999993;;;0.29999999999999993;;
15557;SDS011;7880;50.110;9.372;2023-05-10T01:41:54;0.2;;;0.2;;
15557;SDS011;7880;50.110;9.372;2023-05-10T01:47:01;0.2;;;0.2;;
15557;SDS011;7880;50.110;9.372;2023-05-10T01:52:06;0.29999999999999993;;;0.29999999999999993;;
15557;SDS011;7880;50.110;9.372;2023-05-10T01:57:10;0.36923076923076914;;;0.36923076923076914;;
15557;SDS011;7880;50.110;9.372;2023-05-10T02:02:11;1.8692307692307695;;;0.29999999999999993;;
15557;SDS011;7880;50.110;9.372;2023-05-10T02:07:13;2.169230769230769;;;0.29999999999999993;;
15557;SDS011;7880;50.110;9.372;2023-05-10T02:12:17;0.1692307692307692;;;0.1692307692307692;;
15557;SDS011;7880;50.110;9.372;2023-05-10T02:17:22;0.1692307692307692;;;0.1692307692307692;;
15557;SDS011;7880;50.110;9.372;2023-05-10T02:22:27;0.13076923076923075;;;0.13076923076923075;;
15557;SDS011;7880;50.110;9.372;2023-05-10T02:27:39;0.2;;;0.2;;
15557;SDS011;7880;50.110;9.372;2023-05-10T02:32:38;0.7;;;0.29999999999999993;;
15557;SDS011;7880;50.110;9.372;2023-05-10T02:37:41;1.969230769230769;;;0.29999999999999993;;
15557;SDS011;7880;50.110;9.372;2023-05-10T02:42:45;0.4;;;0.4;;
15557;SDS011;7880;50.110;9.372;2023-05-10T02:47:49;0.2307692307692307;;;0.2307692307692307;;
15557;SDS011;7880;50.110;9.372;2023-05-10T02:52:54;0.29999999999999993;;;0.29999999999999993;;
15557;SDS011;7880;50.110;9.372;2023-05-10T02:58:01;0.6692307692307693;;;0.29999999999999993;;
15557;SDS011;7880;50.110;9.372;2023-05-10T03:03:02;0.4;;;0.4;;
15557;SDS011;7880;50.110;9.372;2023-05-10T03:08:07;0.7692307692307689;;;0.5;;
15557;SDS011;7880;50.110;9.372;2023-05-10T03:13:15;0.4;;;0.4;;
15557;SDS011;7880;50.110;9.372;2023-05-10T03:18:16;0.9000000000000002;;;0.5999999999999999;;
15557;SDS011;7880;50.110;9.372;2023-05-10T03:23:26;0.6307692307692307;;;0.6307692307692307;;
15557;SDS011;7880;50.110;9.372;2023-05-10T03:28:26;1.0307692307692307;;;0.9307692307692309;;
15557;SDS011;7880;50.110;9.372;2023-05-10T03:33:47;1.092307692307692;;;1.046153846153846;;
15557;SDS011;7880;50.110;9.372;2023-05-10T03:38:36;1.0999999999999999;;;1.0999999999999999;;
15557;SDS011;7880;50.110;9.372;2023-05-10T03:43:40;0.9000000000000002;;;0.9000000000000002;;
15557;SDS011;7880;50.110;9.372;2023-05-10T03:48:44;1.0999999999999999;;;1.0;;
15557;SDS011;7880;50.110;9.372;2023-05-10T03:53:48;1.0;;;1.0;;
15557;SDS011;7880;50.110;9.372;2023-05-10T03:58:58;1.6692307692307695;;;0.7;;
15557;SDS011;7880;50.110;9.372;2023-05-10T04:03:57;2.369230769230769;;;0.9000000000000002;;
15557;SDS011;7880;50.110;9.372;2023-05-10T04:09:04;1.8692307692307695;;;1.0;;
15557;SDS011;7880;50.110;9.372;2023-05-10T04:14:09;1.0;;;1.0;;
15557;SDS011;7880;50.110;9.372;2023-05-10T04:19:11;1.0999999999999999;;;0.9000000000000002;;
15557;SDS011;7880;50.110;9.372;2023-05-10T04:24:15;1.3000000000000003;;;1.1999999999999997;;
15557;SDS011;7880;50.110;9.372;2023-05-10T04:29:26;1.1999999999999997;;;1.0999999999999999;;
15557;SDS011;7880;50.110;9.372;2023-05-10T04:35:21;9.415384615384616;;;2.169230769230769;;
15557;SDS011;7880;50.110;9.372;2023-05-10T04:40:25;1.0;;;1.0;;
15557;SDS011;7880;50.110;9.372;2023-05-10T04:45:30;1.4307692307692306;;;1.0;;
15557;SDS011;7880;50.110;9.372;2023-05-10T04:50:35;2.0;;;1.0;;
15557;SDS011;7880;50.110;9.372;2023-05-10T04:55:38;1.5692307692307692;;;1.0;;
15557;SDS011;7880;50.110;9.372;2023-05-10T05:00:44;0.9307692307692309;;;0.9307692307692309;;
15557;SDS011;7880;50.110;9.372;2023-05-10T05:05:49;1.169230769230769;;;1.0692307692307692;;
15557;SDS011;7880;50.110;9.372;2023-05-10T05:10:52;0.9000000000000002;;;0.9000000000000002;;
15557;SDS011;7880;50.110;9.372;2023-05-10T05:15:56;2.469230769230769;;;1.0;;
15557;SDS011;7880;50.110;9.372;2023-05-10T05:21:01;2.7;;;1.330769230769231;;
15557;SDS011;7880;50.110;9.372;2023-05-10T05:26:15;1.3000000000000003;;;1.1999999999999997;;
15557;SDS011;7880;50.110;9.372;2023-05-10T05:31:19;1.1999999999999997;;;1.0999999999999999;;
15557;SDS011;7880;50.110;9.372;2023-05-10T05:36:15;2.1000000000000005;;;1.8999999999999997;;
15557;SDS011;7880;50.110;9.372;2023-05-10T05:41:21;2.230769230769231;;;2.030769230769231;;
15557;SDS011;7880;50.110;9.372;2023-05-10T05:46:24;2.3999999999999995;;;2.1999999999999997;;
15557;SDS011;7880;50.110;9.372;2023-05-10T05:51:35;2.161538461538462;;;2.030769230769231;;
15557;SDS011;7880;50.110;9.372;2023-05-10T05:56:35;2.7307692307692295;;;2.3999999999999995;;
15557;SDS011;7880;50.110;9.372;2023-05-10T06:01:39;2.3999999999999995;;;2.1999999999999997;;
15557;SDS011;7880;50.110;9.372;2023-05-10T06:06:43;3.738461538461539;;;2.7;;
15557;SDS011;7880;50.110;9.372;2023-05-10T06:11:48;3.469230769230769;;;3.169230769230769;;
15557;SDS011;7880;50.110;9.372;2023-05-10T06:16:53;4.869230769230769;;;2.830769230769231;;
15557;SDS011;7880;50.110;9.372;2023-05-10T06:21:57;3.5692307692307685;;;3.030769230769231;;
15557;SDS011;7880;50.110;9.372;2023-05-10T06:27:05;3.630769230769232;;;2.899999999999999;;
15557;SDS011;7880;50.110;9.372;2023-05-10T06:32:07;3.2999999999999994;;;3.0;;
15557;SDS011;7880;50.110;9.372;2023-05-10T06:37:11;4.961538461538461;;;3.5;;
15557;SDS011;7880;50.110;9.372;2023-05-10T06:42:15;3.3615384615384616;;;3.061538461538462;;
15557;SDS011;7880;50.110;9.372;2023-05-10T06:47:29;3.8307692307692305;;;3.530769230769231;;
15557;SDS011;7880;50.110;9.372;2023-05-10T06:52:23;3.7230769230769236;;;3.3615384615384616;;
15557;SDS011;7880;50.110;9.372;2023-05-10T06:57:35;5.4;;;3.7000000000000006;;
15557;SDS011;7880;50.110;9.372;2023-05-10T07:02:32;4.269230769230769;;;3.100000000000001;;
15557;SDS011;7880;50.110;9.372;2023-05-10T07:07:37;4.423076923076923;;;3.130769230769232;;
15557;SDS011;7880;50.110;9.372;2023-05-10T07:12:43;3.630769230769232;;;3.2307692307692295;;
15557;SDS011;7880;50.110;9.372;2023-05-10T07:17:48;7.200000000000002;;;4.161538461538461;;
15557;SDS011;7880;50.110;9.372;2023-05-10T07:22:53;5.138461538461538;;;3.2;;
15557;SDS011;7880;50.110;9.372;2023-05-10T07:27:56;7.161538461538461;;;3.553846153846154;;
15557;SDS011;7880;50.110;9.372;2023-05-10T07:33:02;5.799999999999998;;;3.7307692307692295;;
15557;SDS011;7880;50.110;9.372;2023-05-10T07:38:06;6.576923076923077;;;3.469230769230769;;
15557;SDS011;7880;50.110;9.372;2023-05-10T07:43:10;5.0;;;3.030769230769231;;
15557;SDS011;7880;50.110;9.372;2023-05-10T07:48:19;5.838461538461538;;;3.600000000000001;;
15557;SDS011;7880;50.110;9.372;2023-05-10T07:53:18;5.438461538461538;;;3.100000000000001;;
15557;SDS011;7880;50.110;9.372;2023-05-10T07:58:22;7.176923076923078;;;3.5;;
15557;SDS011;7880;50.110;9.372;2023-05-10T08:03:27;4.6000000000000005;;;3.100000000000001;;
15557;SDS011;7880;50.110;9.372;2023-05-10T08:08:30;7.607692307692308;;;3.100000000000001;;
15557;SDS011;7880;50.110;9.372;2023-05-10T08:13:35;3.161538461538461;;;2.8;;
15557;SDS011;7880;50.110;9.372;2023-05-10T08:18:39;11.099999999999996;;;3.2;;
15557;SDS011;7880;50.110;9.372;2023-05-10T08:23:43;4.5;;;2.7;;
15557;SDS011;7880;50.110;9.372;2023-05-10T08:28:47;7.0;;;3.600000000000001;;
15557;SDS011;7880;50.110;9.372;2023-05-10T08:33:53;5.192307692307693;;;3.100000000000001;;
15557;SDS011;7880;50.110;9.372;2023-05-10T08:38:56;6.315384615384616;;;2.899999999999999;;
15557;SDS011;7880;50.110;9.372;2023-05-10T08:44:02;6.938461538461538;;;3.7307692307692295;;
15557;SDS011;7880;50.110;9.372;2023-05-10T08:49:04;5.700000000000002;;;3.43076923076923;;
15557;SDS011;7880;50.110;9.372;2023-05-10T08:54:08;3.2692307692307705;;;2.5;;
15557;SDS011;7880;50.110;9.372;2023-05-10T08:59:14;5.56923076923077;;;3.030769230769231;;
15557;SDS011;7880;50.110;9.372;2023-05-10T09:04:18;2.8;;;2.6000000000000005;;
15557;SDS011;7880;50.110;9.372;2023-05-10T09:09:21;4.461538461538462;;;2.7307692307692295;;
15557;SDS011;7880;50.110;9.372;2023-05-10T09:14:36;3.530769230769231;;;2.899999999999999;;
15557;SDS011;7880;50.110;9.372;2023-05-10T09:19:34;3.6692307692307695;;;2.6000000000000005;;
15557;SDS011;7880;50.110;9.372;2023-05-10T09:24:42;7.60769230769231;;;2.7;;
15557;SDS011;7880;50.110;9.372;2023-05-10T09:29:41;3.6461538461538465;;;3.100000000000001;;
15557;SDS011;7880;50.110;9.372;2023-05-10T09:34:49;6.207692307692307;;;2.3999999999999995;;
15557;SDS011;7880;50.110;9.372;2023-05-10T09:39:51;6.599999999999999;;;2.569230769230769;;
15557;SDS011;7880;50.110;9.372;2023-05-10T09:44:59;3.2;;;2.0;;
15557;SDS011;7880;50.110;9.372;2023-05-10T09:50:03;4.569230769230769;;;2.630769230769231;;
15557;SDS011;7880;50.110;9.372;2023-05-10T09:55:11;2.9230769230769242;;;2.1999999999999997;;
15557;SDS011;7880;50.110;9.372;2023-05-10T10:00:17;3.6307692307692303;;;2.3000000000000003;;
15557;SDS011;7880;50.110;9.372;2023-05-10T10:05:13;2.5;;;2.3000000000000003;;
15557;SDS011;7880;50.110;9.372;2023-05-10T10:10:18;6.907692307692309;;;2.7307692307692295;;
15557;SDS011;7880;50.110;9.372;2023-05-10T10:15:26;3.469230769230769;;;2.8;;
15557;SDS011;7880;50.110;9.372;2023-05-10T10:20:27;2.5;;;1.9307692307692308;;
15557;SDS011;7880;50.110;9.372;2023-05-10T10:25:33;4.369230769230769;;;2.6000000000000005;;
15557;SDS011;7880;50.110;9.372;2023-05-10T10:30:39;5.5076923076923086;;;1.8000000000000005;;
15557;SDS011;7880;50.110;9.372;2023-05-10T10:35:40;2.899999999999999;;;1.8307692307692305;;
15557;SDS011;7880;50.110;9.372;2023-05-10T10:40:48;3.43076923076923;;;1.8999999999999997;;
15557;SDS011;7880;50.110;9.372;2023-05-10T10:46:22;4.799999999999999;;;2.0;;
15557;SDS011;7880;50.110;9.372;2023-05-10T10:51:05;2.3615384615384616;;;1.8307692307692305;;
15557;SDS011;7880;50.110;9.372;2023-05-10T10:56:08;3.738461538461539;;;1.8000000000000005;;
15557;SDS011;7880;50.110;9.372;2023-05-10T11:01:16;1.9692307692307691;;;1.530769230769231;;
15557;SDS011;7880;50.110;9.372;2023-05-10T11:06:16;2.292307692307692;;;1.530769230769231;;
15557;SDS011;7880;50.110;9.372;2023-05-10T11:11:23;1.8000000000000005;;;1.3000000000000003;;
15557;SDS011;7880;50.110;9.372;2023-05-10T11:16:24;2.7692307692307705;;;1.0999999999999999;;
15557;SDS011;7880;50.110;9.372;2023-05-10T11:21:27;1.6;;;1.0999999999999999;;
15557;SDS011;7880;50.110;9.372;2023-05-10T11:26:32;3.0384615384615383;;;1.5692307692307692;;
15557;SDS011;7880;50.110;9.372;2023-05-10T11:31:41;1.8000000000000005;;;1.530769230769231;;
15557;SDS011;7880;50.110;9.372;2023-05-10T11:36:40;1.8999999999999997;;;1.0999999999999999;;
15557;SDS011;7880;50.110;9.372;2023-05-10T11:42:02;1.9230769230769231;;;1.6999999999999995;;
15557;SDS011;7880;50.110;9.372;2023-05-10T11:46:51;2.469230769230769;;;1.3000000000000003;;
15557;SDS011;7880;50.110;9.372;2023-05-10T11:52:03;3.7999999999999994;;;0.8384615384615385;;
15557;SDS011;7880;50.110;9.372;2023-05-10T11:56:59;1.6999999999999995;;;1.0;;
15557;SDS011;7880;50.110;9.372;2023-05-10T12:02:03;1.5692307692307692;;;0.7692307692307689;;
15557;SDS011;7880;50.110;9.372;2023-05-10T12:07:08;2.569230769230769;;;0.5;;
15557;SDS011;7880;50.110;9.372;2023-05-10T12:12:15;0.9000000000000002;;;0.7;;
15557;SDS011;7880;50.110;9.372;2023-05-10T12:17:27;3.461538461538461;;;0.5;;
15557;SDS011;7880;50.110;9.372;2023-05-10T12:22:21;3.461538461538461;;;0.5;;
15557;SDS011;7880;50.110;9.372;2023-05-10T12:27:31;2.669230769230769;;;0.9000000000000002;;
15557;SDS011;7880;50.110;9.372;2023-05-10T12:32:40;0.8;;;0.8;;
15557;SDS011;7880;50.110;9.372;2023-05-10T12:37:39;1.8307692307692305;;;1.0;;
15557;SDS011;7880;50.110;9.372;2023-05-10T12:42:41;4.938461538461538;;;1.6999999999999995;;
15557;SDS011;7880;50.110;9.372;2023-05-10T12:47:45;1.3000000000000003;;;1.0;;
15557;SDS011;7880;50.110;9.372;2023-05-10T12:52:49;3.338461538461539;;;1.3000000000000003;;
15557;SDS011;7880;50.110;9.372;2023-05-10T12:57:53;1.6999999999999995;;;1.1999999999999997;;
15557;SDS011;7880;50.110;9.372;2023-05-10T13:02:58;1.0999999999999999;;;0.7;;
15557;SDS011;7880;50.110;9.372;2023-05-10T13:08:03;0.7;;;0.7;;
15557;SDS011;7880;50.110;9.372;2023-05-10T13:13:08;0.5;;;0.5;;
15557;SDS011;7880;50.110;9.372;2023-05-10T13:18:13;2.8692307692307684;;;1.4;;
15557;SDS011;7880;50.110;9.372;2023-05-10T13:23:20;4.338461538461538;;;0.8;;
15557;SDS011;7880;50.110;9.372;2023-05-10T13:28:31;1.4615384615384615;;;0.9000000000000002;;
15557;SDS011;7880;50.110;9.372;2023-05-10T13:33:34;16.123076923076926;;;1.530769230769231;;
15557;SDS011;7880;50.110;9.372;2023-05-10T13:38:31;2.846153846153846;;;0.9000000000000002;;
15557;SDS011;7880;50.110;9.372;2023-05-10T13:43:36;28.04615384615384;;;2.669230769230769;;
15557;SDS011;7880;50.110;9.372;2023-05-10T13:48:41;2.569230769230769;;;1.4;;
15557;SDS011;7880;50.110;9.372;2023-05-10T13:53:47;1.1999999999999997;;;1.0;;
15557;SDS011;7880;50.110;9.372;2023-05-10T13:58:57;3.1538461538461537;;;0.8;;
15557;SDS011;7880;50.110;9.372;2023-05-10T14:03:55;1.2692307692307692;;;0.6692307692307693;;
15557;SDS011;7880;50.110;9.372;2023-05-10T14:09:03;1.0153846153846153;;;0.7307692307692311;;
15557;SDS011;7880;50.110;9.372;2023-05-10T14:14:06;1.0;;;0.9000000000000002;;
15557;SDS011;7880;50.110;9.372;2023-05-10T14:19:11;0.8307692307692307;;;0.7307692307692311;;
15557;SDS011;7880;50.110;9.372;2023-05-10T14:24:16;0.7307692307692306;;;0.7307692307692306;;
15557;SDS011;7880;50.110;9.372;2023-05-10T14:29:22;8.046153846153848;;;1.1999999999999997;;
15557;SDS011;7880;50.110;9.372;2023-05-10T14:34:26;1.969230769230769;;;0.8;;
15557;SDS011;7880;50.110;9.372;2023-05-10T14:39:30;1.0999999999999999;;;1.0999999999999999;;
15557;SDS011;7880;50.110;9.372;2023-05-10T14:44:35;11.953846153846154;;;1.330769230769231;;
15557;SDS011;7880;50.110;9.372;2023-05-10T14:49:39;0.9000000000000002;;;0.7;;
15557;SDS011;7880;50.110;9.372;2023-05-10T14:54:44;5.5076923076923086;;;1.0;;
15557;SDS011;7880;50.110;9.372;2023-05-10T14:59:51;4.507692307692308;;;0.8692307692307696;;
15557;SDS011;7880;50.110;9.372;2023-05-10T15:04:53;4.138461538461539;;;0.8;;
15557;SDS011;7880;50.110;9.372;2023-05-10T15:09:59;0.7;;;0.5999999999999999;;
15557;SDS011;7880;50.110;9.372;2023-05-10T15:15:02;0.5999999999999999;;;0.5999999999999999;;
15557;SDS011;7880;50.110;9.372;2023-05-10T15:20:06;6.16923076923077;;;1.1999999999999997;;
15557;SDS011;7880;50.110;9.372;2023-05-10T15:25:09;4.838461538461538;;;1.3000000000000003;;
15557;SDS011;7880;50.110;9.372;2023-05-10T15:30:18;3.3769230769230765;;;1.0999999999999999;;
15557;SDS011;7880;50.110;9.372;2023-05-10T15:35:17;2.3615384615384616;;;1.0999999999999999;;
15557;SDS011;7880;50.110;9.372;2023-05-10T15:40:21;8.276923076923078;;;1.3000000000000003;;
15557;SDS011;7880;50.110;9.372;2023-05-10T15:45:28;2.330769230769231;;;0.9000000000000002;;
15557;SDS011;7880;50.110;9.372;2023-05-10T15:50:30;4.461538461538462;;;1.5;;
15557;SDS011;7880;50.110;9.372;2023-05-10T15:55:36;1.3000000000000003;;;1.1307692307692305;;
15557;SDS011;7880;50.110;9.372;2023-05-10T16:00:39;1.8692307692307695;;;1.0999999999999999;;
15557;SDS011;7880;50.110;9.372;2023-05-10T16:05:51;2.530769230769231;;;1.2307692307692308;;
15557;SDS011;7880;50.110;9.372;2023-05-10T16:10:50;2.369230769230769;;;1.5;;
15557;SDS011;7880;50.110;9.372;2023-05-10T16:15:51;4.607692307692308;;;1.0;;
15557;SDS011;7880;50.110;9.372;2023-05-10T16:20:56;1.5615384615384613;;;1.1307692307692305;;
15557;SDS011;7880;50.110;9.372;2023-05-10T16:26:08;3.738461538461539;;;1.0;;
15557;SDS011;7880;50.110;9.372;2023-05-10T16:31:04;2.969230769230769;;;1.6;;
15557;SDS011;7880;50.110;9.372;2023-05-10T16:36:13;3.438461538461538;;;1.1999999999999997;;
15557;SDS011;7880;50.110;9.372;2023-05-10T16:41:14;2.169230769230769;;;0.7;;
15557;SDS011;7880;50.110;9.372;2023-05-10T16:46:34;4.207692307692307;;;1.469230769230769;;
15557;SDS011;7880;50.110;9.372;2023-05-10T16:51:28;1.8692307692307695;;;0.8;;
15557;SDS011;7880;50.110;9.372;2023-05-10T16:56:28;2.269230769230769;;;1.6999999999999995;;
15557;SDS011;7880;50.110;9.372;2023-05-10T17:01:34;2.3000000000000003;;;1.0;;
15557;SDS011;7880;50.110;9.372;2023-05-10T17:06:44;1.0999999999999999;;;0.5999999999999999;;
15557;SDS011;7880;50.110;9.372;2023-05-10T17:11:46;2.738461538461539;;;0.9000000000000002;;
15557;SDS011;7880;50.110;9.372;2023-05-10T17:16:52;1.6307692307692305;;;0.8307692307692307;;
15557;SDS011;7880;50.110;9.372;2023-05-10T17:21:55;2.2615384615384615;;;0.8;;
15557;SDS011;7880;50.110;9.372;2023-05-10T17:26:59;1.2692307692307692;;;1.0;;
15557;SDS011;7880;50.110;9.372;2023-05-10T17:32:03;0.9384615384615385;;;0.7;;
15557;SDS011;7880;50.110;9.372;2023-05-10T17:37:12;1.969230769230769;;;0.9000000000000002;;
15557;SDS011;7880;50.110;9.372;2023-05-10T17:42:16;3.7692307692307705;;;0.8;;
15557;SDS011;7880;50.110;9.372;2023-05-10T17:47:21;6.076923076923077;;;1.5;;
15557;SDS011;7880;50.110;9.372;2023-05-10T17:52:28;4.507692307692308;;;1.0999999999999999;;
15557;SDS011;7880;50.110;9.372;2023-05-10T17:57:30;5.084615384615385;;;1.0615384615384615;;
15557;SDS011;7880;50.110;9.372;2023-05-10T18:02:40;1.0999999999999999;;;0.8;;
15557;SDS011;7880;50.110;9.372;2023-05-10T18:07:45;3.5384615384615383;;;0.9000000000000002;;
15557;SDS011;7880;50.110;9.372;2023-05-10T18:12:47;5.807692307692306;;;0.7;;
15557;SDS011;7880;50.110;9.372;2023-05-10T18:17:52;1.6;;;0.8307692307692307;;
15557;SDS011;7880;50.110;9.372;2023-05-10T18:22:54;2.669230769230769;;;0.9000000000000002;;
15557;SDS011;7880;50.110;9.372;2023-05-10T18:27:57;1.5;;;0.6307692307692307;;
15557;SDS011;7880;50.110;9.372;2023-05-10T18:33:03;2.469230769230769;;;1.0692307692307692;;
15557;SDS011;7880;50.110;9.372;2023-05-10T18:38:09;3.438461538461538;;;1.0;;
15557;SDS011;7880;50.110;9.372;2023-05-10T18:43:14;4.3999999999999995;;;1.0999999999999999;;
15557;SDS011;7880;50.110;9.372;2023-05-10T18:48:26;3.469230769230769;;;0.8;;
15557;SDS011;7880;50.110;9.372;2023-05-10T18:53:24;3.5;;;2.330769230769231;;
15557;SDS011;7880;50.110;9.372;2023-05-10T18:58:29;1.8999999999999997;;;1.3000000000000003;;
15557;SDS011;7880;50.110;9.372;2023-05-10T19:03:46;5.0;;;1.2384615384615385;;
15557;SDS011;7880;50.110;9.372;2023-05-10T19:08:38;1.6;;;1.3000000000000003;;
15557;SDS011;7880;50.110;9.372;2023-05-10T19:13:44;2.5384615384615383;;;1.0999999999999999;;
15557;SDS011;7880;50.110;9.372;2023-05-10T19:18:47;1.0;;;0.9000000000000002;;
15557;SDS011;7880;50.110;9.372;2023-05-10T19:23:54;3.6692307692307695;;;1.3000000000000003;;
15557;SDS011;7880;50.110;9.372;2023-05-10T19:28:58;7.176923076923075;;;1.330769230769231;;
15557;SDS011;7880;50.110;9.372;2023-05-10T19:34:04;1.8000000000000005;;;1.5;;
15557;SDS011;7880;50.110;9.372;2023-05-10T19:39:10;2.0692307692307694;;;1.0;;
15557;SDS011;7880;50.110;9.372;2023-05-10T19:44:15;5.0076923076923086;;;1.0;;
15557;SDS011;7880;50.110;9.372;2023-05-10T19:49:22;3.4692307692307693;;;1.3615384615384616;;
15557;SDS011;7880;50.110;9.372;2023-05-10T19:54:39;1.9384615384615378;;;0.9000000000000002;;
15557;SDS011;7880;50.110;9.372;2023-05-10T19:59:43;2.684615384615385;;;1.0307692307692307;;
15557;SDS011;7880;50.110;9.372;2023-05-10T20:04:49;2.1307692307692307;;;1.1307692307692305;;
15557;SDS011;7880;50.110;9.372;2023-05-10T20:09:56;3.3307692307692305;;;1.6999999999999995;;
15557;SDS011;7880;50.110;9.372;2023-05-10T20:14:59;2.8692307692307684;;;1.8000000000000005;;
15557;SDS011;7880;50.110;9.372;2023-05-10T20:20:05;1.7307692307692308;;;1.3000000000000003;;
15557;SDS011;7880;50.110;9.372;2023-05-10T20:25:10;4.361538461538463;;;1.6538461538461542;;
15557;SDS011;7880;50.110;9.372;2023-05-10T20:30:20;6.276923076923077;;;2.169230769230769;;
15557;SDS011;7880;50.110;9.372;2023-05-10T20:35:20;3.169230769230769;;;2.3000000000000003;;
15557;SDS011;7880;50.110;9.372;2023-05-10T20:40:25;3.5384615384615383;;;1.1999999999999997;;
15557;SDS011;7880;50.110;9.372;2023-05-10T20:45:29;1.2692307692307692;;;0.8692307692307696;;
15557;SDS011;7880;50.110;9.372;2023-05-10T20:50:33;1.8999999999999997;;;1.0307692307692307;;
15557;SDS011;7880;50.110;9.372;2023-05-10T20:55:41;1.8000000000000005;;;0.9307692307692309;;
15557;SDS011;7880;50.110;9.372;2023-05-10T21:00:43;3.2692307692307705;;;0.8;;
15557;SDS011;7880;50.110;9.372;2023-05-10T21:05:46;3.569230769230769;;;1.0076923076923074;;
15557;SDS011;7880;50.110;9.372;2023-05-10T21:10:52;1.6692307692307695;;;1.0999999999999999;;
15557;SDS011;7880;50.110;9.372;2023-05-10T21:15:56;1.4;;;1.3000000000000003;;
15557;SDS011;7880;50.110;9.372;2023-05-10T21:21:02;1.0999999999999999;;;1.0;;
15557;SDS011;7880;50.110;9.372;2023-05-10T21:26:20;1.6;;;1.0999999999999999;;
15557;SDS011;7880;50.110;9.372;2023-05-10T21:31:16;1.5923076923076924;;;1.1999999999999997;;
15557;SDS011;7880;50.110;9.372;2023-05-10T21:36:17;1.5461538461538464;;;1.0615384615384613;;
15557;SDS011;7880;50.110;9.372;2023-05-10T21:41:21;2.4153846153846166;;;1.8000000000000005;;
15557;SDS011;7880;50.110;9.372;2023-05-10T21:46:26;0.8692307692307696;;;0.8692307692307696;;
15557;SDS011;7880;50.110;9.372;2023-05-10T21:51:31;3.1384615384615384;;;1.0;;
15557;SDS011;7880;50.110;9.372;2023-05-10T21:56:35;7.176923076923078;;;1.0999999999999999;;
15557;SDS011;7880;50.110;9.372;2023-05-10T22:01:40;1.2692307692307692;;;1.169230769230769;;
15557;SDS011;7880;50.110;9.372;2023-05-10T22:06:47;1.5692307692307692;;;1.3692307692307695;;
15557;SDS011;7880;50.110;9.372;2023-05-10T22:11:52;2.969230769230769;;;1.1999999999999997;;
15557;SDS011;7880;50.110;9.372;2023-05-10T22:16:56;2.7615384615384624;;;1.1999999999999997;;
15557;SDS011;7880;50.110;9.372;2023-05-10T22:21:55;1.3000000000000003;;;1.0307692307692307;;
15557;SDS011;7880;50.110;9.372;2023-05-10T22:27:01;1.1999999999999997;;;1.0;;
15557;SDS011;7880;50.110;9.372;2023-05-10T22:32:05;2.899999999999999;;;1.0307692307692307;;
15557;SDS011;7880;50.110;9.372;2023-05-10T22:37:17;2.7692307692307705;;;1.0;;
15557;SDS011;7880;50.110;9.372;2023-05-10T22:42:13;0.9000000000000002;;;0.9000000000000002;;
15557;SDS011;7880;50.110;9.372;2023-05-10T22:47:17;1.6923076923076918;;;1.1999999999999997;;
15557;SDS011;7880;50.110;9.372;2023-05-10T22:52:22;3.1384615384615384;;;1.3000000000000003;;
15557;SDS011;7880;50.110;9.372;2023-05-10T22:57:32;1.3000000000000003;;;1.1999999999999997;;
15557;SDS011;7880;50.110;9.372;2023-05-10T23:02:35;2.8692307692307684;;;1.0999999999999999;;
15557;SDS011;7880;50.110;9.372;2023-05-10T23:07:36;1.0;;;0.9000000000000002;;
15557;SDS011;7880;50.110;9.372;2023-05-10T23:12:40;2.569230769230769;;;1.0999999999999999;;
15557;SDS011;7880;50.110;9.372;2023-05-10T23:17:43;1.969230769230769;;;1.4;;
15557;SDS011;7880;50.110;9.372;2023-05-10T23:22:55;0.9692307692307693;;;0.9692307692307693;;
15557;SDS011;7880;50.110;9.372;2023-05-10T23:27:54;1.2692307692307692;;;0.9000000000000002;;
15557;SDS011;7880;50.110;9.372;2023-05-10T23:32:59;1.469230769230769;;;1.3000000000000003;;
15557;SDS011;7880;50.110;9.372;2023-05-10T23:38:03;1.1999999999999997;;;1.0999999999999999;;